createdAt,value
2019-05-22T00:14:13.190Z,0.80
2019-05-22T00:29:25.930Z,0.70
2019-05-22T00:44:36.758Z,0.60
2019-05-22T00:59:46.913Z,0.90
2019-05-22T01:14:55.606Z,0.70
2019-05-22T01:30:07.814Z,0.50
2019-05-22T01:45:18.012Z,0.50
2019-05-22T02:00:26.404Z,0.60
2019-05-22T02:15:35.388Z,0.50
2019-05-22T02:30:45.504Z,0.70
2019-05-22T02:45:53.759Z,0.70
2019-05-22T03:01:06.961Z,0.50
2019-05-22T03:16:16.131Z,0.35
2019-05-22T03:31:25.418Z,0.47
2019-05-22T03:46:40.771Z,0.42
2019-05-22T04:01:51.062Z,0.30
2019-05-22T04:17:02.047Z,0.98
2019-05-22T04:32:18.028Z,0.85
2019-05-22T04:47:27.240Z,1.15
2019-05-22T05:02:36.311Z,0.93
2019-05-22T05:17:45.016Z,1.22
2019-05-22T05:32:52.691Z,1.75
2019-05-22T05:48:05.398Z,1.90
2019-05-22T06:03:42.533Z,2.58
2019-05-22T06:18:52.854Z,2.92
2019-05-22T06:34:00.970Z,3.72
2019-05-22T06:49:29.390Z,3.47
2019-05-22T07:04:37.729Z,3.35
2019-05-22T07:19:46.696Z,3.45
2019-05-22T07:34:54.597Z,3.80
2019-05-22T07:50:04.619Z,3.80
2019-05-22T08:05:14.367Z,3.60
2019-05-22T08:20:22.884Z,4.03
2019-05-22T08:35:44.100Z,4.03
2019-05-22T08:50:59.143Z,3.67
2019-05-22T09:06:09.105Z,8.65
2019-05-22T09:21:20.675Z,2.12
2019-05-22T09:36:33.377Z,2.45
2019-05-22T09:51:43.470Z,3.10
2019-05-22T10:06:52.523Z,1.85
2019-05-22T10:21:59.878Z,1.50
2019-05-22T10:37:08.762Z,1.95
2019-05-22T10:52:16.547Z,1.70
2019-05-22T11:07:26.367Z,1.40
2019-05-22T11:22:36.497Z,1.40
2019-05-22T11:37:44.786Z,1.60
2019-05-22T11:52:52.563Z,1.20
2019-05-22T12:08:01.366Z,2.05
2019-05-22T12:23:13.751Z,1.62
2019-05-22T12:38:27.059Z,1.90
2019-05-22T12:53:35.271Z,2.12
2019-05-22T13:08:45.238Z,2.45
2019-05-22T13:23:55.259Z,2.60
2019-05-22T13:39:07.825Z,2.55
2019-05-22T13:54:16.251Z,2.05
2019-05-22T14:09:25.280Z,2.45
2019-05-22T14:24:37.744Z,2.60
2019-05-22T14:39:46.726Z,2.17
2019-05-22T14:54:56.143Z,2.40
2019-05-22T15:10:05.211Z,2.10
2019-05-22T15:25:14.613Z,3.65
2019-05-22T15:40:24.468Z,4.67
2019-05-22T15:55:35.656Z,4.25
2019-05-22T16:10:45.377Z,4.70
2019-05-22T16:25:56.167Z,5.50
2019-05-22T16:41:05.405Z,2.37
2019-05-22T16:56:15.191Z,2.37
2019-05-22T17:11:26.326Z,2.62
2019-05-22T17:26:38.896Z,3.62
2019-05-22T17:41:47.260Z,3.30
2019-05-22T17:57:06.409Z,5.17
2019-05-22T18:12:16.173Z,4.78
2019-05-22T18:27:26.280Z,2.70
2019-05-22T18:42:38.451Z,3.20
2019-05-22T18:57:49.040Z,2.77
2019-05-22T19:13:02.004Z,3.55
2019-05-22T19:28:10.392Z,2.90
2019-05-22T19:43:19.121Z,1.72
2019-05-22T19:58:31.419Z,1.72
2019-05-22T20:13:45.251Z,1.12
2019-05-22T20:28:54.951Z,1.20
2019-05-22T20:44:07.016Z,0.90
2019-05-22T20:59:15.214Z,0.78
2019-05-22T21:14:24.715Z,1.30
2019-05-22T21:29:35.708Z,0.60
2019-05-22T21:44:48.170Z,0.78
2019-05-22T21:59:58.220Z,0.60
2019-05-22T22:15:08.982Z,0.60
2019-05-22T22:30:24.501Z,0.55
2019-05-22T22:45:40.445Z,0.50
2019-05-22T23:00:51.313Z,0.50
2019-05-22T23:16:00.442Z,0.70
2019-05-22T23:31:11.377Z,1.00
2019-05-22T23:46:21.109Z,0.85
